createdAt,value
2023-05-14T00:01:02.449Z,14.96
2023-05-14T00:03:29.004Z,15.01
2023-05-14T00:05:55.544Z,15.02
2023-05-14T00:08:21.976Z,15.00
2023-05-14T00:10:48.383Z,15.04
2023-05-14T00:13:14.741Z,15.05
2023-05-14T00:15:41.323Z,15.05
2023-05-14T00:18:08.039Z,15.00
2023-05-14T00:20:34.509Z,14.98
2023-05-14T00:23:01.075Z,14.98
2023-05-14T00:25:27.681Z,14.92
2023-05-14T00:27:54.440Z,14.96
2023-05-14T00:30:20.952Z,14.95
2023-05-14T00:32:47.575Z,14.98
2023-05-14T00:35:14.095Z,14.97
2023-05-14T00:37:40.565Z,14.95
2023-05-14T00:40:08.531Z,14.95
2023-05-14T00:42:35.158Z,14.91
2023-05-14T00:45:01.680Z,14.83
2023-05-14T00:47:28.415Z,14.80
2023-05-14T00:49:55.023Z,14.76
2023-05-14T00:52:22.033Z,14.70
2023-05-14T00:54:49.240Z,14.71
2023-05-14T00:57:16.220Z,14.70
2023-05-14T00:59:42.692Z,14.67
2023-05-14T01:02:09.197Z,14.69
2023-05-14T01:04:35.804Z,14.73
2023-05-14T01:07:37.766Z,14.76
2023-05-14T01:10:07.356Z,14.72
2023-05-14T01:12:43.964Z,14.67
2023-05-14T01:15:23.834Z,14.62
2023-05-14T01:17:55.607Z,14.58
2023-05-14T01:20:23.110Z,14.56
2023-05-14T01:22:49.942Z,14.61
2023-05-14T01:25:16.461Z,14.63
2023-05-14T01:27:55.304Z,14.63
2023-05-14T01:30:28.448Z,14.60
2023-05-14T01:33:00.444Z,14.59
2023-05-14T01:35:29.535Z,14.54
2023-05-14T01:37:59.787Z,14.54
2023-05-14T01:40:27.448Z,14.54
2023-05-14T01:42:55.336Z,14.55
2023-05-14T01:45:22.896Z,14.54
2023-05-14T01:47:50.354Z,14.55
2023-05-14T01:50:17.521Z,14.55
2023-05-14T01:52:43.985Z,14.50
2023-05-14T01:55:10.878Z,14.48
2023-05-14T01:57:37.371Z,14.47
2023-05-14T02:00:04.316Z,14.45
2023-05-14T02:02:40.573Z,14.33
2023-05-14T02:05:09.343Z,14.29
2023-05-14T02:07:35.855Z,14.28
2023-05-14T02:10:02.309Z,14.30
2023-05-14T02:12:28.779Z,14.29
2023-05-14T02:14:55.226Z,14.25
2023-05-14T02:17:21.749Z,14.26
2023-05-14T02:19:48.231Z,14.27
2023-05-14T02:22:15.125Z,14.24
2023-05-14T02:24:41.713Z,14.22
2023-05-14T02:27:08.144Z,14.20
2023-05-14T02:29:34.605Z,14.16
2023-05-14T02:32:01.486Z,14.15
2023-05-14T02:34:27.916Z,14.19
2023-05-14T02:36:55.036Z,14.21
2023-05-14T02:39:21.455Z,14.23
2023-05-14T02:41:47.882Z,14.20
2023-05-14T02:44:14.253Z,14.18
2023-05-14T02:46:40.869Z,14.17
2023-05-14T02:49:07.431Z,14.11
2023-05-14T02:51:33.935Z,14.06
2023-05-14T02:54:00.475Z,14.09
2023-05-14T02:56:26.912Z,14.07
2023-05-14T02:58:53.415Z,14.07
2023-05-14T03:01:20.463Z,13.99
2023-05-14T03:03:47.452Z,13.96
2023-05-14T03:06:17.544Z,14.00
2023-05-14T03:08:44.078Z,13.89
2023-05-14T03:11:10.510Z,13.87
2023-05-14T03:13:36.976Z,13.83
2023-05-14T03:16:03.409Z,13.83
2023-05-14T03:18:30.685Z,13.81
2023-05-14T03:20:57.269Z,13.82
2023-05-14T03:23:23.710Z,13.79
2023-05-14T03:25:52.511Z,13.79
2023-05-14T03:28:18.941Z,13.86
2023-05-14T03:30:45.442Z,13.88
2023-05-14T03:33:12.318Z,13.85
2023-05-14T03:35:39.151Z,13.84
2023-05-14T03:38:05.991Z,13.75
2023-05-14T03:40:34.276Z,13.70
2023-05-14T03:43:00.952Z,13.66
2023-05-14T03:45:28.679Z,13.68
2023-05-14T03:47:55.352Z,13.69
2023-05-14T03:50:25.357Z,13.65
2023-05-14T03:52:52.768Z,13.63
2023-05-14T03:55:22.082Z,13.67
2023-05-14T03:57:48.852Z,13.72
2023-05-14T04:00:16.012Z,13.73
2023-05-14T04:02:45.137Z,13.75
2023-05-14T04:05:11.733Z,13.77
2023-05-14T04:07:38.155Z,13.72
2023-05-14T04:10:05.022Z,13.71
2023-05-14T04:12:33.954Z,13.71
2023-05-14T04:15:00.887Z,13.71
2023-05-14T04:17:27.632Z,13.75
2023-05-14T04:19:54.119Z,13.77
2023-05-14T04:22:20.578Z,13.79
2023-05-14T04:24:47.043Z,13.83
2023-05-14T04:27:21.554Z,13.83
2023-05-14T04:29:51.555Z,13.83
2023-05-14T04:32:18.280Z,13.85
2023-05-14T04:34:44.828Z,13.89
2023-05-14T04:37:11.269Z,13.91
2023-05-14T04:39:37.928Z,13.89
2023-05-14T04:42:04.818Z,13.85
2023-05-14T04:44:31.203Z,13.79
2023-05-14T04:46:57.605Z,13.81
2023-05-14T04:49:24.088Z,13.81
2023-05-14T04:51:50.694Z,13.76
2023-05-14T04:54:17.153Z,13.76
2023-05-14T04:56:43.676Z,13.75
2023-05-14T04:59:10.200Z,13.71
2023-05-14T05:01:36.813Z,13.64
2023-05-14T05:04:03.350Z,13.66
2023-05-14T05:06:29.884Z,13.72
2023-05-14T05:08:56.250Z,13.74
2023-05-14T05:11:22.665Z,13.68
2023-05-14T05:13:49.114Z,13.71
2023-05-14T05:16:16.214Z,13.68
2023-05-14T05:18:44.518Z,13.65
2023-05-14T05:21:11.101Z,13.67
2023-05-14T05:23:37.567Z,13.70
2023-05-14T05:26:04.041Z,13.73
2023-05-14T05:28:30.572Z,13.75
2023-05-14T05:30:57.084Z,13.74
2023-05-14T05:33:23.575Z,13.79
2023-05-14T05:35:50.111Z,13.80
2023-05-14T05:38:18.218Z,13.81
2023-05-14T05:40:44.769Z,13.83
2023-05-14T05:43:11.559Z,13.87
2023-05-14T05:45:37.962Z,13.83
2023-05-14T05:48:04.765Z,13.85
2023-05-14T05:50:32.190Z,13.91
2023-05-14T05:52:59.269Z,13.90
2023-05-14T05:55:25.862Z,13.94
2023-05-14T05:57:52.319Z,13.91
2023-05-14T06:00:19.163Z,13.91
2023-05-14T06:02:46.489Z,13.97
2023-05-14T06:05:13.368Z,14.06
2023-05-14T06:07:39.852Z,14.18
2023-05-14T06:10:07.041Z,14.25
2023-05-14T06:12:33.532Z,14.30
2023-05-14T06:14:59.941Z,14.27
2023-05-14T06:17:27.054Z,14.31
2023-05-14T06:19:53.526Z,14.33
2023-05-14T06:22:20.115Z,14.34
2023-05-14T06:24:47.279Z,14.42
2023-05-14T06:27:13.740Z,14.46
2023-05-14T06:29:40.381Z,14.55
2023-05-14T06:32:07.460Z,14.56
2023-05-14T06:34:34.186Z,14.57
2023-05-14T06:37:02.685Z,14.58
2023-05-14T06:39:29.292Z,14.62
2023-05-14T06:41:55.787Z,14.71
2023-05-14T06:44:23.340Z,14.68
2023-05-14T06:46:49.763Z,14.68
2023-05-14T06:49:16.443Z,14.71
2023-05-14T06:51:43.016Z,14.77
2023-05-14T06:54:09.558Z,14.78
2023-05-14T06:56:35.973Z,14.78
2023-05-14T06:59:02.721Z,14.73
2023-05-14T07:01:29.234Z,14.76
2023-05-14T07:03:56.026Z,14.74
2023-05-14T07:06:22.918Z,14.77
2023-05-14T07:08:49.315Z,14.70
2023-05-14T07:11:15.901Z,14.63
2023-05-14T07:13:42.941Z,14.62
2023-05-14T07:16:12.313Z,14.62
2023-05-14T07:18:38.746Z,14.57
2023-05-14T07:21:06.538Z,14.57
2023-05-14T07:23:36.000Z,14.54
2023-05-14T07:26:03.518Z,14.57
2023-05-14T07:28:30.000Z,14.62
2023-05-14T07:30:56.559Z,14.70
2023-05-14T07:33:23.237Z,14.71
2023-05-14T07:35:49.712Z,14.76
2023-05-14T07:38:16.849Z,14.82
2023-05-14T07:40:43.577Z,14.83
2023-05-14T07:43:10.592Z,14.82
2023-05-14T07:45:38.966Z,14.83
2023-05-14T07:48:05.816Z,14.87
2023-05-14T07:50:32.669Z,14.95
2023-05-14T07:52:59.204Z,15.05
2023-05-14T07:55:25.983Z,15.19
2023-05-14T07:57:52.475Z,15.33
2023-05-14T08:00:19.247Z,15.31
2023-05-14T08:02:46.051Z,15.28
2023-05-14T08:05:12.872Z,15.34
2023-05-14T08:07:39.404Z,15.44
2023-05-14T08:10:07.757Z,15.42
2023-05-14T08:12:34.316Z,15.45
2023-05-14T08:15:00.978Z,15.50
2023-05-14T08:17:27.583Z,15.56
2023-05-14T08:19:54.426Z,15.59
2023-05-14T08:22:21.712Z,15.71
2023-05-14T08:24:48.221Z,15.81
2023-05-14T08:27:14.677Z,15.90
2023-05-14T08:29:41.494Z,15.93
2023-05-14T08:32:21.916Z,15.96
2023-05-14T08:34:49.590Z,15.98
2023-05-14T08:37:25.573Z,15.98
2023-05-14T08:39:52.477Z,16.05
2023-05-14T08:42:20.783Z,15.99
2023-05-14T08:44:53.733Z,16.05
2023-05-14T08:47:22.118Z,16.12
2023-05-14T08:49:55.043Z,16.13
2023-05-14T08:52:22.252Z,16.08
2023-05-14T08:54:53.546Z,16.17
2023-05-14T08:57:20.989Z,16.23
2023-05-14T08:59:47.659Z,16.24
2023-05-14T09:02:17.334Z,16.18
2023-05-14T09:04:44.477Z,16.24
2023-05-14T09:07:11.475Z,16.29
2023-05-14T09:09:38.359Z,16.35
2023-05-14T09:12:06.271Z,16.39
2023-05-14T09:14:33.272Z,16.38
2023-05-14T09:16:59.824Z,16.37
2023-05-14T09:19:26.460Z,16.42
2023-05-14T09:21:57.973Z,16.48
2023-05-14T09:24:26.240Z,16.56
2023-05-14T09:26:54.564Z,16.66
2023-05-14T09:29:21.104Z,16.71
2023-05-14T09:31:51.059Z,16.75
2023-05-14T09:34:24.487Z,16.84
2023-05-14T09:36:54.569Z,16.94
2023-05-14T09:39:23.504Z,17.06
2023-05-14T09:41:51.777Z,17.16
2023-05-14T09:44:19.392Z,17.16
2023-05-14T09:46:46.360Z,17.18
2023-05-14T09:49:13.083Z,17.24
2023-05-14T09:51:39.575Z,17.34
2023-05-14T09:54:06.323Z,17.39
2023-05-14T09:56:34.034Z,17.46
2023-05-14T09:59:01.098Z,17.49
2023-05-14T10:01:29.874Z,17.45
2023-05-14T10:03:56.909Z,17.41
2023-05-14T10:06:26.182Z,17.38
2023-05-14T10:08:56.261Z,17.38
2023-05-14T10:11:26.962Z,17.33
2023-05-14T10:14:18.214Z,17.39
2023-05-14T10:16:50.788Z,17.41
2023-05-14T10:19:20.006Z,17.46
2023-05-14T10:21:52.296Z,17.55
2023-05-14T10:24:19.662Z,17.62
2023-05-14T10:26:46.838Z,17.65
2023-05-14T10:29:13.231Z,17.67
2023-05-14T10:31:54.140Z,17.75
2023-05-14T10:34:38.494Z,17.79
2023-05-14T10:37:07.918Z,17.87
2023-05-14T10:39:53.850Z,17.94
2023-05-14T10:42:27.216Z,17.98
2023-05-14T10:45:01.946Z,18.04
2023-05-14T10:47:29.235Z,18.05
2023-05-14T10:49:58.551Z,17.97
2023-05-14T10:52:26.298Z,17.94
2023-05-14T10:55:02.862Z,17.96
2023-05-14T10:57:31.587Z,18.04
2023-05-14T11:00:00.451Z,18.19
2023-05-14T11:02:37.005Z,18.27
2023-05-14T11:05:08.060Z,18.29
2023-05-14T11:07:39.951Z,18.28
2023-05-14T11:10:07.774Z,18.27
2023-05-14T11:12:35.933Z,18.29
2023-05-14T11:15:05.748Z,18.30
2023-05-14T11:17:32.469Z,18.29
2023-05-14T11:20:00.771Z,18.26
2023-05-14T11:22:27.669Z,18.29
2023-05-14T11:24:54.077Z,18.34
2023-05-14T11:27:21.726Z,18.36
2023-05-14T11:29:48.890Z,18.40
2023-05-14T11:32:16.846Z,18.38
2023-05-14T11:34:46.485Z,18.33
2023-05-14T11:37:14.874Z,18.26
2023-05-14T11:39:48.963Z,18.32
2023-05-14T11:42:18.397Z,18.41
2023-05-14T11:44:49.069Z,18.41
2023-05-14T11:47:18.378Z,18.41
2023-05-14T11:49:45.332Z,18.47
2023-05-14T11:52:16.248Z,18.51
2023-05-14T11:54:44.248Z,18.55
2023-05-14T11:57:13.017Z,18.40
2023-05-14T11:59:39.986Z,18.27
2023-05-14T12:02:10.756Z,18.16
2023-05-14T12:04:37.470Z,18.08
2023-05-14T12:07:11.648Z,18.17
2023-05-14T12:09:42.611Z,18.27
2023-05-14T12:12:12.269Z,18.33
2023-05-14T12:14:43.370Z,18.37
2023-05-14T12:17:12.987Z,18.43
2023-05-14T12:19:41.857Z,18.49
2023-05-14T12:22:10.196Z,18.46
2023-05-14T12:24:36.967Z,18.49
2023-05-14T12:27:03.816Z,18.56
2023-05-14T12:29:30.336Z,18.67
2023-05-14T12:31:59.316Z,18.64
2023-05-14T12:34:25.863Z,18.68
2023-05-14T12:36:52.339Z,18.71
2023-05-14T12:39:18.718Z,18.75
2023-05-14T12:41:45.406Z,18.84
2023-05-14T12:44:12.847Z,18.91
2023-05-14T12:46:39.390Z,18.88
2023-05-14T12:49:06.838Z,18.84
2023-05-14T12:51:34.162Z,18.70
2023-05-14T12:54:00.542Z,18.69
2023-05-14T12:56:28.335Z,18.69
2023-05-14T12:58:56.402Z,18.65
2023-05-14T13:01:23.668Z,18.60
2023-05-14T13:03:51.465Z,18.62
2023-05-14T13:06:18.051Z,18.60
2023-05-14T13:08:44.820Z,18.61
2023-05-14T13:11:11.293Z,18.66
2023-05-14T13:13:37.679Z,18.75
2023-05-14T13:16:04.507Z,18.90
2023-05-14T13:18:30.993Z,19.05
2023-05-14T13:20:57.467Z,19.08
2023-05-14T13:23:24.264Z,18.95
2023-05-14T13:25:51.085Z,18.94
2023-05-14T13:28:17.479Z,18.97
2023-05-14T13:31:03.924Z,18.98
2023-05-14T13:33:30.626Z,19.07
2023-05-14T13:35:57.080Z,19.19
2023-05-14T13:38:23.561Z,19.15
2023-05-14T13:40:50.098Z,19.17
2023-05-14T13:43:16.893Z,19.18
2023-05-14T13:45:43.422Z,19.23
2023-05-14T13:48:09.950Z,19.30
2023-05-14T13:50:36.405Z,19.36
2023-05-14T13:53:02.771Z,19.46
2023-05-14T13:55:29.224Z,19.50
2023-05-14T13:57:55.843Z,19.58
2023-05-14T14:00:22.396Z,19.51
2023-05-14T14:02:48.805Z,19.48
2023-05-14T14:05:15.457Z,19.54
2023-05-14T14:07:41.890Z,19.57
2023-05-14T14:10:09.178Z,19.60
2023-05-14T14:12:35.811Z,19.63
2023-05-14T14:15:03.633Z,19.58
2023-05-14T14:17:30.096Z,19.57
2023-05-14T14:19:56.606Z,19.68
2023-05-14T14:22:26.173Z,19.73
2023-05-14T14:24:54.986Z,19.72
2023-05-14T14:27:22.347Z,19.68
2023-05-14T14:29:48.795Z,19.66
2023-05-14T14:32:15.797Z,19.68
2023-05-14T14:34:42.249Z,19.70
2023-05-14T14:37:08.680Z,19.73
2023-05-14T14:39:35.170Z,19.77
2023-05-14T14:42:01.601Z,19.68
2023-05-14T14:44:27.996Z,19.69
2023-05-14T14:46:54.535Z,19.71
2023-05-14T14:49:20.973Z,19.76
2023-05-14T14:51:47.416Z,19.68
2023-05-14T14:54:13.885Z,19.68
2023-05-14T14:56:40.505Z,19.60
2023-05-14T14:59:07.121Z,19.60
2023-05-14T15:01:33.875Z,19.57
2023-05-14T15:04:00.322Z,19.66
2023-05-14T15:06:26.748Z,19.74
2023-05-14T15:08:53.207Z,19.80
2023-05-14T15:11:19.829Z,19.83
2023-05-14T15:13:46.241Z,19.83
2023-05-14T15:16:13.589Z,19.83
2023-05-14T15:18:40.185Z,19.80
2023-05-14T15:21:06.677Z,19.73
2023-05-14T15:23:33.094Z,19.66
2023-05-14T15:25:59.775Z,19.60
2023-05-14T15:28:26.613Z,19.57
2023-05-14T15:30:53.181Z,19.57
2023-05-14T15:33:19.839Z,19.53
2023-05-14T15:35:46.462Z,19.47
2023-05-14T15:38:12.916Z,19.44
2023-05-14T15:40:40.381Z,19.41
2023-05-14T15:43:06.827Z,19.27
2023-05-14T15:45:33.292Z,19.30
2023-05-14T15:47:59.800Z,19.25
2023-05-14T15:50:27.363Z,19.21
2023-05-14T15:52:53.946Z,19.20
2023-05-14T15:55:20.622Z,19.17
2023-05-14T15:57:47.108Z,19.02
2023-05-14T16:00:14.309Z,18.89
2023-05-14T16:02:41.554Z,18.81
2023-05-14T16:05:08.597Z,18.76
2023-05-14T16:07:35.981Z,18.75
2023-05-14T16:10:02.450Z,18.75
2023-05-14T16:12:28.932Z,18.71
2023-05-14T16:14:56.923Z,18.69
2023-05-14T16:17:23.422Z,18.71
2023-05-14T16:19:49.841Z,18.68
2023-05-14T16:22:16.288Z,18.65
2023-05-14T16:24:42.665Z,18.51
2023-05-14T16:27:09.147Z,18.43
2023-05-14T16:29:35.564Z,18.41
2023-05-14T16:32:02.128Z,18.46
2023-05-14T16:34:28.541Z,18.45
2023-05-14T16:36:54.963Z,18.36
2023-05-14T16:39:21.483Z,18.20
2023-05-14T16:41:47.895Z,18.13
2023-05-14T16:44:14.316Z,18.17
2023-05-14T16:46:40.860Z,18.16
2023-05-14T16:49:07.327Z,18.15
2023-05-14T16:51:33.762Z,18.06
2023-05-14T16:54:00.311Z,18.00
2023-05-14T16:56:27.010Z,17.93
2023-05-14T16:58:53.457Z,17.91
2023-05-14T17:01:19.927Z,17.89
2023-05-14T17:03:46.865Z,17.82
2023-05-14T17:06:13.277Z,17.83
2023-05-14T17:08:39.737Z,17.71
2023-05-14T17:11:06.226Z,17.67
2023-05-14T17:13:33.029Z,17.67
2023-05-14T17:16:00.504Z,17.54
2023-05-14T17:18:27.211Z,17.51
2023-05-14T17:20:53.618Z,17.46
2023-05-14T17:23:20.338Z,17.37
2023-05-14T17:25:46.703Z,17.27
2023-05-14T17:28:13.152Z,17.25
2023-05-14T17:30:39.722Z,17.19
2023-05-14T17:33:06.186Z,17.20
2023-05-14T17:35:36.049Z,17.16
2023-05-14T17:38:03.181Z,17.20
2023-05-14T17:40:29.627Z,17.20
2023-05-14T17:42:56.099Z,17.21
2023-05-14T17:45:22.652Z,17.21
2023-05-14T17:47:49.875Z,17.18
2023-05-14T17:50:16.606Z,17.21
2023-05-14T17:52:44.140Z,17.22
2023-05-14T17:55:11.070Z,17.22
2023-05-14T17:57:37.555Z,17.17
2023-05-14T18:00:07.539Z,17.20
2023-05-14T18:02:37.255Z,17.17
2023-05-14T18:05:04.090Z,17.12
2023-05-14T18:07:30.821Z,17.07
2023-05-14T18:09:57.730Z,17.01
2023-05-14T18:12:25.561Z,16.98
2023-05-14T18:14:52.172Z,16.98
2023-05-14T18:17:18.679Z,16.94
2023-05-14T18:19:45.308Z,16.97
2023-05-14T18:22:11.792Z,16.92
2023-05-14T18:24:38.231Z,16.88
2023-05-14T18:27:04.875Z,16.79
2023-05-14T18:29:31.289Z,16.80
2023-05-14T18:31:57.781Z,16.77
2023-05-14T18:34:24.338Z,16.79
2023-05-14T18:36:50.874Z,16.71
2023-05-14T18:39:17.311Z,16.68
2023-05-14T18:41:43.678Z,16.66
2023-05-14T18:44:10.256Z,16.67
2023-05-14T18:46:36.690Z,16.70
2023-05-14T18:49:03.189Z,16.72
2023-05-14T18:51:29.653Z,16.63
2023-05-14T18:53:56.187Z,16.59
2023-05-14T18:56:22.725Z,16.59
2023-05-14T18:58:49.108Z,16.58
2023-05-14T19:01:15.652Z,16.58
2023-05-14T19:03:42.236Z,16.61
2023-05-14T19:06:08.804Z,16.59
2023-05-14T19:08:35.809Z,16.52
2023-05-14T19:11:02.509Z,16.47
2023-05-14T19:13:30.199Z,16.33
2023-05-14T19:15:56.734Z,16.23
2023-05-14T19:18:23.272Z,16.24
2023-05-14T19:20:49.930Z,16.24
2023-05-14T19:23:16.396Z,16.20
2023-05-14T19:25:42.835Z,16.18
2023-05-14T19:28:09.514Z,16.17
2023-05-14T19:30:35.899Z,16.14
2023-05-14T19:33:02.396Z,16.16
2023-05-14T19:35:28.910Z,16.08
2023-05-14T19:37:55.379Z,16.02
2023-05-14T19:40:21.892Z,16.00
2023-05-14T19:42:48.385Z,16.02
2023-05-14T19:45:14.915Z,16.00
2023-05-14T19:47:42.726Z,16.00
2023-05-14T19:50:09.635Z,16.03
2023-05-14T19:52:36.027Z,16.06
2023-05-14T19:55:02.450Z,16.05
2023-05-14T19:57:29.291Z,15.99
2023-05-14T19:59:55.714Z,16.01
2023-05-14T20:02:22.631Z,16.03
2023-05-14T20:04:49.527Z,16.04
2023-05-14T20:07:16.113Z,16.02
2023-05-14T20:09:42.538Z,15.89
2023-05-14T20:12:09.360Z,15.88
2023-05-14T20:14:36.151Z,15.90
2023-05-14T20:17:02.676Z,15.90
2023-05-14T20:19:29.159Z,15.89
2023-05-14T20:21:56.374Z,15.87
2023-05-14T20:24:22.857Z,15.82
2023-05-14T20:26:49.384Z,15.79
2023-05-14T20:29:15.893Z,15.79
2023-05-14T20:31:42.372Z,15.78
2023-05-14T20:34:08.743Z,15.75
2023-05-14T20:36:35.837Z,15.73
2023-05-14T20:39:02.285Z,15.70
2023-05-14T20:41:28.686Z,15.65
2023-05-14T20:43:55.097Z,15.60
2023-05-14T20:46:21.576Z,15.59
2023-05-14T20:48:48.564Z,15.59
2023-05-14T20:51:14.999Z,15.61
2023-05-14T20:53:41.673Z,15.58
2023-05-14T20:56:08.215Z,15.58
2023-05-14T20:58:35.220Z,15.57
2023-05-14T21:01:01.696Z,15.58
2023-05-14T21:03:28.265Z,15.56
2023-05-14T21:05:56.668Z,15.56
2023-05-14T21:08:23.166Z,15.54
2023-05-14T21:10:49.544Z,15.51
2023-05-14T21:13:15.908Z,15.48
2023-05-14T21:15:42.469Z,15.45
2023-05-14T21:18:09.024Z,15.42
2023-05-14T21:20:35.455Z,15.43
2023-05-14T21:23:01.912Z,15.41
2023-05-14T21:25:28.572Z,15.38
2023-05-14T21:27:55.005Z,15.37
2023-05-14T21:30:21.839Z,15.33
2023-05-14T21:32:48.278Z,15.30
2023-05-14T21:35:14.718Z,15.28
2023-05-14T21:37:41.428Z,15.25
2023-05-14T21:40:12.291Z,15.23
2023-05-14T21:42:39.716Z,15.19
2023-05-14T21:45:06.668Z,15.15
2023-05-14T21:47:33.312Z,15.10
2023-05-14T21:50:00.252Z,15.09
2023-05-14T21:52:26.800Z,15.07
2023-05-14T21:54:53.222Z,15.11
2023-05-14T21:57:19.712Z,15.11
2023-05-14T21:59:46.120Z,15.11
2023-05-14T22:02:12.617Z,15.11
2023-05-14T22:04:39.454Z,15.13
2023-05-14T22:07:05.983Z,15.09
2023-05-14T22:09:32.417Z,15.11
2023-05-14T22:11:59.503Z,15.09
2023-05-14T22:14:27.166Z,15.09
2023-05-14T22:16:53.662Z,15.08
2023-05-14T22:19:20.286Z,15.07
2023-05-14T22:21:46.797Z,15.05
2023-05-14T22:24:13.273Z,15.03
2023-05-14T22:26:39.753Z,15.03
2023-05-14T22:29:06.143Z,15.02
2023-05-14T22:31:32.638Z,15.00
2023-05-14T22:33:59.038Z,14.98
2023-05-14T22:36:25.480Z,14.95
2023-05-14T22:38:51.973Z,14.91
2023-05-14T22:41:18.420Z,14.88
2023-05-14T22:43:44.999Z,14.86
2023-05-14T22:46:11.383Z,14.85
2023-05-14T22:48:37.815Z,14.83
2023-05-14T22:51:04.352Z,14.82
2023-05-14T22:53:30.873Z,14.79
2023-05-14T22:55:57.332Z,14.77
2023-05-14T22:58:23.878Z,14.76
2023-05-14T23:00:50.259Z,14.75
2023-05-14T23:03:16.693Z,14.74
2023-05-14T23:05:43.193Z,14.71
2023-05-14T23:08:10.878Z,14.68
2023-05-14T23:10:37.329Z,14.67
2023-05-14T23:13:04.490Z,14.65
2023-05-14T23:15:31.139Z,14.65
2023-05-14T23:17:57.751Z,14.65
2023-05-14T23:20:24.325Z,14.62
2023-05-14T23:22:50.756Z,14.64
2023-05-14T23:25:17.156Z,14.60
2023-05-14T23:27:43.585Z,14.59
2023-05-14T23:30:10.504Z,14.58
2023-05-14T23:32:36.929Z,14.56
2023-05-14T23:35:03.713Z,14.52
2023-05-14T23:37:30.453Z,14.49
2023-05-14T23:39:56.935Z,14.49
2023-05-14T23:42:24.704Z,14.47
2023-05-14T23:44:51.128Z,14.43
2023-05-14T23:47:17.692Z,14.41
2023-05-14T23:49:44.227Z,14.38
2023-05-14T23:52:11.230Z,14.38
2023-05-14T23:54:38.771Z,14.35
2023-05-14T23:57:05.413Z,14.33
2023-05-14T23:59:31.860Z,14.30
